Phillipsburg, MO (65722)

2:50 PM CST on January 25, 2015 (GMT -0600)
S. Newport, Conway | Change Station
CLOSE
Current Station
Personal Weather Station
Location: Conway, MO
Elevation: 1394 ft
Nearby Weather Stations

Elev 1394 ft 37.50 °N, 92.83 °W | Updated 34 seconds ago

Rain
Rain
36.7 °F
Feels Like 37 °F
N
2.2
Wind Variable Wind from SW
Gusts 7.6 mph

Today
High -- | Low -- °F
--% Chance of Precip.
Yesterday
High -- | Low -- °F
Precip. -- in
7:20 AM 5:27 PM
Waxing Crescent, 35% visible
Pressure 29.76 in
Visibility 7.0 miles
Clouds Mostly Cloudy 600 ft
Overcast 1100 ft
Windchill 37 °F
Dew Point 34 °F
Humidity 90%
Rainfall 0.04 in
Snow Depth Not available.
UV 1 out of 12
Pollen 2.20 out of 12
Air Quality Not available.
Flu Activity Not available.
METAR KH21 252035Z AUTO 28013G19KT 7SM -RA BKN006 OVC011 02/02 A2976 RMK AO2 P0002

More Conditions Fewer Conditions

Pressure 29.76 in
Visibility 7.0 miles
Clouds Mostly Cloudy 600 ft
Overcast 1100 ft
Windchill 37 °F
Dew Point 34 °F
Humidity 90%
Rainfall 0.04 in
Snow Depth Not available.
UV 1 out of 12
Pollen 2.20 out of 12
Air Quality Not available.
Flu Activity Not available.
METAR KH21 252035Z AUTO 28013G19KT 7SM -RA BKN006 OVC011 02/02 A2976 RMK AO2 P0002

More Conditions Fewer Conditions

10-Day Weather Forecast

Almanac

Astronomy

Jan. 25, 2015 Rise Set
Actual Time
Civil Twilight
Nautical Twilight
Astronomical Twilight
Moon
Length of Visible Light
Length of Day
Tomorrow will be .
, % of the Moon is Illuminated

Today's Extremes

State Highs State Lows

Community

WunderPhotos

Upload Photos

1,790,041 photos uploaded!

WunderBlogs® & News

Nearby

Air Quality

  Air Quality AQ Index Pollutant
Not available.

Snow Depth

Station Depth Elevation

Earthquake Activity

City Distance Mag. Time & Date
Minimum magnitude displayed is 2.5.

Coastal Water Temperatures

Place Temperature

Nearby Weather Stations